createdAt,value
2017-10-01T00:00:11.270Z,87.92
2017-10-01T00:00:56.703Z,87.82
2017-10-01T00:01:56.721Z,87.92
2017-10-01T00:02:56.758Z,87.2
2017-10-01T00:03:56.764Z,87.1
2017-10-01T00:04:56.783Z,87.15
2017-10-01T00:05:56.806Z,87.73
2017-10-01T00:06:56.837Z,86.68
2017-10-01T00:07:56.849Z,86.68
2017-10-01T00:08:56.875Z,86.68
2017-10-01T00:09:56.892Z,86.68
2017-10-01T00:10:56.912Z,86.87
2017-10-01T00:11:56.941Z,86.68
2017-10-01T00:12:56.641Z,87.15
2017-10-01T00:13:56.979Z,87.25
2017-10-01T00:14:57.010Z,87.1
2017-10-01T00:16:11.612Z,87.01
2017-10-01T00:16:56.724Z,86.91
2017-10-01T00:17:57.064Z,87.29
2017-10-01T00:18:56.765Z,87.15
2017-10-01T00:19:57.103Z,87.1
2017-10-01T00:20:57.127Z,87.35
2017-10-01T00:21:57.146Z,86.87
2017-10-01T00:22:56.851Z,87.06
2017-10-01T00:23:57.192Z,87.1
2017-10-01T00:24:57.213Z,87.15
2017-10-01T00:25:57.235Z,86.96
2017-10-01T00:26:57.253Z,87.25
2017-10-01T00:27:56.960Z,87.15
2017-10-01T00:28:57.295Z,86.68
2017-10-01T00:29:57.320Z,86.68
2017-10-01T00:31:11.933Z,86.87
2017-10-01T00:31:57.368Z,87.06
2017-10-01T00:32:57.388Z,87.25
2017-10-01T00:33:57.406Z,87.15
2017-10-01T00:34:57.428Z,87.92
2017-10-01T00:35:57.455Z,87.35
2017-10-01T00:36:57.152Z,87.06
2017-10-01T00:37:57.492Z,87.82
2017-10-01T00:38:57.513Z,87.82
2017-10-01T00:39:57.217Z,87.63
2017-10-01T00:40:57.237Z,87.35
2017-10-01T00:41:57.576Z,87.73
2017-10-01T00:42:57.597Z,87.92
2017-10-01T00:43:57.621Z,87.63
2017-10-01T00:44:57.639Z,87.82
2017-10-01T00:45:57.345Z,87.73
2017-10-01T00:46:57.683Z,87.73
2017-10-01T00:47:57.387Z,87.73
2017-10-01T00:48:57.727Z,87.73
2017-10-01T00:50:57.768Z,88.11
2017-10-01T00:51:57.472Z,88.3
2017-10-01T00:52:57.814Z,88.11
2017-10-01T00:53:57.835Z,88.78
2017-10-01T00:54:57.854Z,88.49
2017-10-01T00:55:57.874Z,88.68
2017-10-01T00:56:57.901Z,88.49
2017-10-01T00:57:57.920Z,88.49
2017-10-01T00:58:57.937Z,88.97
2017-10-01T00:59:57.961Z,88.4
2017-10-01T01:00:57.981Z,87.92
2017-10-01T01:01:58.003Z,88.68
2017-10-01T01:03:12.615Z,88.97
2017-10-01T01:03:58.048Z,88.87
2017-10-01T01:05:58.094Z,88.97
2017-10-01T01:06:58.108Z,88.49
2017-10-01T01:07:58.131Z,88.49
2017-10-01T01:08:58.157Z,88.68
2017-10-01T01:09:58.174Z,89.25
2017-10-01T01:10:58.198Z,89.06
2017-10-01T01:11:58.217Z,88.78
2017-10-01T01:12:58.245Z,88.87
2017-10-01T01:13:58.260Z,88.78
2017-10-01T01:14:58.277Z,89.16
2017-10-01T01:15:57.983Z,89.31
2017-10-01T01:16:58.317Z,88.73
2017-10-01T01:17:58.025Z,89.06
2017-10-01T01:19:12.955Z,89.16
2017-10-01T01:19:58.385Z,88.78
2017-10-01T01:21:58.433Z,88.92
2017-10-01T01:23:58.468Z,89.16
2017-10-01T01:24:58.495Z,89.88
2017-10-01T01:25:58.517Z,89.12
2017-10-01T01:26:58.532Z,89.02
2017-10-01T01:27:58.554Z,89.02
2017-10-01T01:28:58.577Z,89.12
2017-10-01T01:29:58.599Z,89.21
2017-10-01T01:30:58.624Z,89.59
2017-10-01T01:31:58.640Z,89.5
2017-10-01T01:33:58.682Z,89.59
2017-10-01T01:35:13.296Z,89.4
2017-10-01T01:35:58.725Z,89.5
2017-10-01T01:36:58.744Z,90.17
2017-10-01T01:38:58.790Z,89.78
2017-10-01T01:39:58.813Z,90.07
2017-10-01T01:40:58.853Z,90.26
2017-10-01T01:41:58.850Z,89.59
2017-10-01T01:42:58.872Z,90.64
2017-10-01T01:43:58.575Z,90.83
2017-10-01T01:44:58.918Z,90.64
2017-10-01T01:45:58.933Z,90.45
2017-10-01T01:46:58.956Z,90.73
2017-10-01T01:47:58.977Z,90.55
2017-10-01T01:48:59.000Z,91.02
2017-10-01T01:49:59.018Z,90.93
2017-10-01T01:51:13.633Z,90.93
2017-10-01T01:52:59.083Z,90.55
2017-10-01T01:53:59.108Z,91.31
2017-10-01T01:54:59.128Z,91.41
2017-10-01T01:55:59.146Z,91.6
2017-10-01T01:56:59.169Z,91.78
2017-10-01T01:57:59.189Z,91.5
2017-10-01T01:58:59.214Z,91.31
2017-10-01T01:59:59.231Z,91.6
2017-10-01T02:00:59.255Z,91.5
2017-10-01T02:01:59.278Z,91.98
2017-10-01T02:02:59.296Z,92.12
2017-10-01T02:03:59.327Z,92.03
2017-10-01T02:04:59.338Z,92.79
2017-10-01T02:06:13.952Z,92.74
2017-10-01T02:06:59.382Z,92.83
2017-10-01T02:07:59.401Z,92.65
2017-10-01T02:08:59.440Z,92.55
2017-10-01T02:09:59.441Z,92.65
2017-10-01T02:10:59.467Z,93.02
2017-10-01T02:11:59.485Z,92.36
2017-10-01T02:12:59.508Z,92.5
2017-10-01T02:13:59.530Z,92.69
2017-10-01T02:14:59.548Z,92.69
2017-10-01T02:15:59.252Z,92.98
2017-10-01T02:16:59.593Z,92.6
2017-10-01T02:17:59.665Z,93.17
2017-10-01T02:18:59.633Z,92.98
2017-10-01T02:19:59.706Z,92.98
2017-10-01T02:20:59.676Z,93.74
2017-10-01T02:21:59.379Z,93.84
2017-10-01T02:22:59.719Z,92.6
2017-10-01T02:23:59.736Z,93.74
2017-10-01T02:24:59.760Z,93.55
2017-10-01T02:25:59.781Z,93.93
2017-10-01T02:27:59.827Z,93.93
2017-10-01T02:28:59.844Z,94.12
2017-10-01T02:29:59.873Z,93.74
2017-10-01T02:30:59.888Z,93.84
2017-10-01T02:31:59.905Z,94.32
2017-10-01T02:32:59.933Z,94.6
2017-10-01T02:33:59.949Z,94.41
2017-10-01T02:34:59.972Z,94.51
2017-10-01T02:35:59.993Z,94.22
2017-10-01T02:37:00.010Z,94.89
2017-10-01T02:38:14.625Z,94.51
2017-10-01T02:42:00.125Z,94.03
2017-10-01T02:43:00.141Z,94.79
2017-10-01T02:44:00.157Z,94.7
2017-10-01T02:45:00.182Z,94.7
2017-10-01T02:46:00.208Z,94.98
2017-10-01T02:47:00.222Z,94.79
2017-10-01T02:48:00.243Z,94.7
2017-10-01T02:49:00.262Z,94.7
2017-10-01T02:50:00.290Z,94.6
2017-10-01T02:51:00.306Z,94.98
2017-10-01T02:52:00.326Z,94.6
2017-10-01T02:53:00.349Z,94.98
2017-10-01T02:54:14.960Z,94.98
2017-10-01T02:55:00.390Z,94.89
2017-10-01T02:56:00.412Z,94.98
2017-10-01T02:57:00.429Z,94.98
2017-10-01T02:58:00.497Z,94.98
2017-10-01T02:59:00.475Z,94.89
2017-10-01T03:00:00.494Z,94.89
2017-10-01T03:01:00.516Z,94.89
2017-10-01T03:02:00.536Z,94.98
2017-10-01T03:03:00.555Z,94.98
2017-10-01T03:04:00.579Z,94.89
2017-10-01T03:05:00.281Z,95.46
2017-10-01T03:06:00.301Z,95.65
2017-10-01T03:07:00.323Z,95.37
2017-10-01T03:08:00.662Z,95.17
2017-10-01T03:09:00.364Z,95.65
2017-10-01T03:10:15.295Z,95.65
2017-10-01T03:11:00.724Z,95.37
2017-10-01T03:13:00.447Z,95.65
2017-10-01T03:14:00.469Z,95.37
2017-10-01T03:15:00.808Z,95.75
2017-10-01T03:16:00.512Z,95.37
2017-10-01T03:17:00.849Z,95.37
2017-10-01T03:18:00.898Z,95.17
2017-10-01T03:19:00.892Z,94.89
2017-10-01T03:20:00.916Z,95.27
2017-10-01T03:21:00.615Z,95.17
2017-10-01T03:22:00.952Z,94.98
2017-10-01T03:23:01.024Z,94.89
2017-10-01T03:24:00.677Z,94.98
2017-10-01T03:25:01.015Z,95.17
2017-10-01T03:26:15.629Z,94.98
2017-10-01T03:27:01.057Z,94.7
2017-10-01T03:29:01.099Z,94.79
2017-10-01T03:30:01.125Z,95.46
2017-10-01T03:31:01.144Z,95.75
2017-10-01T03:32:01.162Z,95.65
2017-10-01T03:33:01.185Z,95.37
2017-10-01T03:35:01.225Z,95.56
2017-10-01T03:36:01.250Z,95.65
2017-10-01T03:37:01.269Z,95.46
2017-10-01T03:38:01.287Z,95.75
2017-10-01T03:39:00.991Z,95.46
2017-10-01T03:40:01.329Z,94.98
2017-10-01T03:41:15.942Z,95.56
2017-10-01T03:42:01.374Z,95.56
2017-10-01T03:43:01.390Z,95.56
2017-10-01T03:44:01.422Z,95.37
2017-10-01T03:45:01.435Z,95.84
2017-10-01T03:46:01.456Z,95.37
2017-10-01T03:47:01.478Z,95.37
2017-10-01T03:48:01.502Z,95.17
2017-10-01T03:49:01.519Z,95.46
2017-10-01T03:50:01.542Z,95.17
2017-10-01T03:51:01.555Z,95.65
2017-10-01T03:52:01.582Z,95.08
2017-10-01T03:53:01.599Z,95.37
2017-10-01T03:54:01.621Z,95.46
2017-10-01T03:55:01.643Z,95.56
2017-10-01T03:56:01.670Z,95.65
2017-10-01T03:57:01.685Z,95.37
2017-10-01T03:58:01.707Z,95.56
2017-10-01T03:59:01.734Z,95.75
2017-10-01T04:00:01.750Z,95.27
2017-10-01T04:01:01.764Z,95.65
2017-10-01T04:02:01.786Z,95.46
2017-10-01T04:03:01.810Z,95.17
2017-10-01T04:04:01.831Z,95.37
2017-10-01T04:05:01.534Z,95.65
2017-10-01T04:06:01.871Z,95.94
2017-10-01T04:07:01.889Z,95.75
2017-10-01T04:08:01.917Z,96.13
2017-10-01T04:09:01.935Z,96.03
2017-10-01T04:10:01.953Z,95.94
2017-10-01T04:11:01.978Z,95.94
2017-10-01T04:12:01.995Z,95.65
2017-10-01T04:13:16.610Z,95.56
2017-10-01T04:14:01.720Z,95.84
2017-10-01T04:15:02.063Z,95.56
2017-10-01T04:16:02.078Z,96.22
2017-10-01T04:17:02.105Z,96.03
2017-10-01T04:18:02.125Z,95.84
2017-10-01T04:19:02.145Z,96.03
2017-10-01T04:20:02.169Z,96.32
2017-10-01T04:21:02.184Z,96.13
2017-10-01T04:22:01.887Z,95.94
2017-10-01T04:23:02.234Z,96.22
2017-10-01T04:24:02.245Z,95.94
2017-10-01T04:25:02.266Z,95.94
2017-10-01T04:26:02.290Z,96.22
2017-10-01T04:27:02.309Z,96.32
2017-10-01T04:28:02.329Z,96.13
2017-10-01T04:29:16.945Z,96.22
2017-10-01T04:30:02.373Z,96.13
2017-10-01T04:31:02.392Z,95.84
2017-10-01T04:32:02.415Z,96.03
2017-10-01T04:33:02.435Z,96.22
2017-10-01T04:34:02.457Z,96.32
2017-10-01T04:35:02.476Z,96.03
2017-10-01T04:36:02.498Z,96.03
2017-10-01T04:37:02.519Z,96.51
2017-10-01T04:38:02.543Z,96.7
2017-10-01T04:39:02.559Z,96.61
2017-10-01T04:40:02.584Z,96.03
2017-10-01T04:41:02.600Z,96.13
2017-10-01T04:42:02.630Z,96.13
2017-10-01T04:43:02.643Z,96.22
2017-10-01T04:44:02.671Z,95.94
2017-10-01T04:45:17.276Z,96.41
2017-10-01T04:46:02.705Z,96.41
2017-10-01T04:47:02.724Z,96.22
2017-10-01T04:48:02.749Z,96.13
2017-10-01T04:50:02.789Z,96.32
2017-10-01T04:51:02.814Z,96.03
2017-10-01T04:52:02.832Z,96.13
2017-10-01T04:54:02.873Z,96.22
2017-10-01T04:55:02.894Z,96.22
2017-10-01T04:56:02.912Z,96.22
2017-10-01T04:57:02.936Z,96.22
2017-10-01T04:58:02.954Z,96.13
2017-10-01T04:59:02.982Z,96.22
2017-10-01T05:00:02.679Z,96.7
2017-10-01T05:01:17.612Z,96.41
2017-10-01T05:02:03.040Z,96.89
2017-10-01T05:03:03.064Z,97.08
2017-10-01T05:04:03.080Z,96.61
2017-10-01T05:05:03.101Z,96.7
2017-10-01T05:06:03.121Z,96.22
2017-10-01T05:07:03.143Z,96.51
2017-10-01T05:08:03.163Z,96.61
2017-10-01T05:09:03.185Z,96.89
2017-10-01T05:10:03.207Z,97.08
2017-10-01T05:11:02.909Z,96.8
2017-10-01T05:12:03.250Z,96.51
2017-10-01T05:13:03.271Z,96.8
2017-10-01T05:14:03.291Z,96.13
2017-10-01T05:15:03.314Z,96.03
2017-10-01T05:16:17.924Z,96.22
2017-10-01T05:17:03.352Z,96.32
2017-10-01T05:18:03.424Z,96.03
2017-10-01T05:19:03.396Z,95.94
2017-10-01T05:21:03.437Z,96.51
2017-10-01T05:22:03.460Z,96.41
2017-10-01T05:23:03.478Z,96.8
2017-10-01T05:24:03.502Z,96.98
2017-10-01T05:25:03.524Z,96.7
2017-10-01T05:26:03.538Z,96.61
2017-10-01T05:27:03.562Z,96.89
2017-10-01T05:28:03.585Z,97.17
2017-10-01T05:29:03.603Z,96.13
2017-10-01T05:30:03.634Z,96.41
2017-10-01T05:31:03.644Z,96.61
2017-10-01T05:32:03.665Z,96.41
2017-10-01T05:33:03.688Z,96.51
2017-10-01T05:34:03.711Z,96.61
2017-10-01T05:35:03.738Z,96.7
2017-10-01T05:36:03.753Z,96.51
2017-10-01T05:37:03.455Z,96.41
2017-10-01T05:38:03.795Z,96.7
2017-10-01T05:39:03.815Z,96.22
2017-10-01T05:40:03.837Z,96.61
2017-10-01T05:41:03.861Z,96.37
2017-10-01T05:42:03.881Z,96.51
2017-10-01T05:43:03.899Z,96.56
2017-10-01T05:44:03.926Z,96.75
2017-10-01T05:45:03.941Z,96.66
2017-10-01T05:46:03.965Z,96.56
2017-10-01T05:47:03.984Z,96.56
2017-10-01T05:48:18.594Z,96.75
2017-10-01T05:49:04.026Z,96.75
2017-10-01T05:50:04.048Z,96.56
2017-10-01T05:51:04.070Z,96.17
2017-10-01T05:53:04.112Z,96.27
2017-10-01T05:55:04.159Z,96.17
2017-10-01T05:56:04.170Z,96.08
2017-10-01T05:57:04.198Z,95.51
2017-10-01T05:58:04.221Z,95.41
2017-10-01T05:59:04.239Z,95.32
2017-10-01T06:00:04.263Z,95.79
2017-10-01T06:01:04.285Z,95.79
2017-10-01T06:02:04.302Z,95.98
2017-10-01T06:04:18.935Z,96.08
2017-10-01T06:05:04.364Z,96.37
2017-10-01T06:06:04.403Z,95.98
2017-10-01T06:07:04.457Z,96.17
2017-10-01T06:08:04.432Z,96.08
2017-10-01T06:09:04.453Z,95.98
2017-10-01T06:10:04.470Z,96.27
2017-10-01T06:11:04.491Z,95.89
2017-10-01T06:12:04.512Z,95.98
2017-10-01T06:13:04.214Z,96.27
2017-10-01T06:14:04.554Z,96.27
2017-10-01T06:15:04.259Z,96.27
2017-10-01T06:16:04.597Z,95.98
2017-10-01T06:17:04.620Z,95.7
2017-10-01T06:18:04.322Z,95.7
2017-10-01T06:19:04.660Z,95.89
2017-10-01T06:20:19.274Z,95.79
2017-10-01T06:21:04.701Z,95.98
2017-10-01T06:22:04.724Z,95.79
2017-10-01T06:23:04.429Z,96.08
2017-10-01T06:24:04.765Z,95.41
2017-10-01T06:26:04.811Z,95.79
2017-10-01T06:27:04.828Z,95.98
2017-10-01T06:28:04.852Z,95.41
2017-10-01T06:29:04.555Z,95.41
2017-10-01T06:30:04.893Z,95.61
2017-10-01T06:31:04.914Z,95.03
2017-10-01T06:32:04.938Z,94.74
2017-10-01T06:33:04.960Z,95.03
2017-10-01T06:34:05.027Z,94.56
2017-10-01T06:36:19.613Z,94.74
2017-10-01T06:37:05.094Z,94.6
2017-10-01T06:38:05.068Z,94.41
2017-10-01T06:39:05.082Z,94.89
2017-10-01T06:40:05.110Z,94.84
2017-10-01T06:41:04.810Z,94.41
2017-10-01T06:42:05.148Z,94.65
2017-10-01T06:43:05.172Z,94.31
2017-10-01T06:44:05.193Z,94.6
2017-10-01T06:45:04.893Z,94.98
2017-10-01T06:46:05.236Z,94.84
2017-10-01T06:47:05.266Z,94.7
2017-10-01T06:48:05.278Z,94.74
2017-10-01T06:49:05.301Z,94.7
2017-10-01T06:50:05.321Z,94.7
2017-10-01T06:51:19.935Z,94.79
2017-10-01T06:52:05.361Z,94.7
2017-10-01T06:53:05.385Z,94.79
2017-10-01T06:55:05.428Z,94.79
2017-10-01T06:56:05.446Z,94.7
2017-10-01T06:57:05.470Z,94.7
2017-10-01T06:58:05.173Z,94.7
2017-10-01T06:59:05.510Z,94.7
2017-10-01T07:00:05.216Z,94.98
2017-10-01T07:01:05.554Z,94.98
2017-10-01T07:02:05.574Z,94.89
2017-10-01T07:03:05.279Z,94.6
2017-10-01T07:04:05.618Z,95.08
2017-10-01T07:05:05.640Z,94.79
2017-10-01T07:06:05.342Z,94.89
2017-10-01T07:08:05.701Z,94.41
2017-10-01T07:09:05.722Z,94.31
2017-10-01T07:11:05.769Z,94.7
2017-10-01T07:12:05.788Z,94.41
2017-10-01T07:13:05.807Z,94.41
2017-10-01T07:15:05.853Z,94.51
2017-10-01T07:16:05.873Z,94.41
2017-10-01T07:17:05.894Z,94.12
2017-10-01T07:18:05.918Z,94.03
2017-10-01T07:19:05.936Z,93.74
2017-10-01T07:20:05.961Z,94.03
2017-10-01T07:21:05.981Z,94.41
2017-10-01T07:22:06.004Z,94.12
2017-10-01T07:23:20.614Z,93.79
2017-10-01T07:24:06.044Z,93.79
2017-10-01T07:26:05.769Z,93.21
2017-10-01T07:27:06.107Z,93.12
2017-10-01T07:28:06.132Z,93.6
2017-10-01T07:29:06.151Z,93.6
2017-10-01T07:30:06.171Z,93.31
2017-10-01T07:31:06.192Z,93.12
2017-10-01T07:32:06.214Z,93.12
2017-10-01T07:33:06.234Z,92.83
2017-10-01T07:34:06.272Z,93.02
2017-10-01T07:35:06.278Z,93.21
2017-10-01T07:36:06.301Z,93.02
2017-10-01T07:37:06.003Z,92.93
2017-10-01T07:38:06.344Z,92.83
2017-10-01T07:39:20.956Z,93.12
2017-10-01T07:40:06.384Z,92.74
2017-10-01T07:41:06.405Z,93.12
2017-10-01T07:42:06.110Z,92.45
2017-10-01T07:43:06.450Z,92.64
2017-10-01T07:44:06.153Z,92.93
2017-10-01T07:45:06.493Z,92.55
2017-10-01T07:46:06.194Z,92.55
2017-10-01T07:47:06.217Z,92.64
2017-10-01T07:48:06.559Z,93.02
2017-10-01T07:49:06.576Z,93.41
2017-10-01T07:50:06.602Z,92.55
2017-10-01T07:51:06.631Z,92.93
2017-10-01T07:52:06.642Z,93.12
2017-10-01T07:53:06.665Z,94.27
2017-10-01T07:54:06.688Z,94.36
2017-10-01T07:55:21.299Z,94.36
2017-10-01T07:56:06.408Z,94.46
2017-10-01T07:58:06.454Z,95.51
2017-10-01T08:02:06.872Z,95.61
2017-10-01T08:03:06.879Z,95.12
2017-10-01T08:04:06.899Z,94.84
2017-10-01T08:05:06.925Z,94.84
2017-10-01T08:06:06.940Z,95.12
2017-10-01T08:07:06.965Z,95.61
2017-10-01T08:08:06.989Z,94.65
2017-10-01T08:09:07.007Z,94.84
2017-10-01T08:10:07.032Z,95.12
2017-10-01T08:11:21.642Z,94.55
2017-10-01T08:12:07.074Z,94.17
2017-10-01T08:13:07.092Z,93.6
2017-10-01T08:14:06.796Z,94.36
2017-10-01T08:15:07.135Z,94.07
2017-10-01T08:16:07.162Z,94.55
2017-10-01T08:17:07.180Z,93.7
2017-10-01T08:18:07.204Z,93.88
2017-10-01T08:19:07.223Z,93.79
2017-10-01T08:20:07.246Z,93.88
2017-10-01T08:21:07.288Z,94.07
2017-10-01T08:22:07.296Z,93.79
2017-10-01T08:23:06.993Z,93.98
2017-10-01T08:24:07.336Z,94.12
2017-10-01T08:25:07.358Z,93.93
2017-10-01T08:26:21.971Z,93.65
2017-10-01T08:28:07.421Z,93.65
2017-10-01T08:29:07.442Z,93.65
2017-10-01T08:30:07.146Z,92.74
2017-10-01T08:31:07.488Z,93.93
2017-10-01T08:32:07.509Z,95.07
2017-10-01T08:33:07.526Z,95.07
2017-10-01T08:34:07.550Z,94.51
2017-10-01T08:35:07.622Z,94.51
2017-10-01T08:36:07.594Z,93.93
2017-10-01T08:37:07.618Z,94.02
2017-10-01T08:38:07.648Z,94.31
2017-10-01T08:39:07.657Z,94.6
2017-10-01T08:40:07.684Z,94.41
2017-10-01T08:41:07.704Z,94.41
2017-10-01T08:42:07.731Z,93.74
2017-10-01T08:43:07.753Z,94.12
2017-10-01T08:44:07.770Z,93.84
2017-10-01T08:45:07.789Z,94.02
2017-10-01T08:46:07.493Z,93.55
2017-10-01T08:47:07.835Z,94.12
2017-10-01T08:48:07.855Z,93.84
2017-10-01T08:49:07.877Z,94.02
2017-10-01T08:50:07.903Z,94.12
2017-10-01T08:51:07.921Z,94.31
2017-10-01T08:52:07.945Z,94.89
2017-10-01T08:53:07.964Z,94.31
2017-10-01T08:54:07.668Z,93.84
2017-10-01T08:55:08.008Z,94.41
2017-10-01T08:56:08.030Z,94.89
2017-10-01T08:57:08.051Z,95.32
2017-10-01T08:58:22.667Z,95.75
2017-10-01T08:59:07.778Z,95.75
2017-10-01T09:00:08.123Z,95.07
2017-10-01T09:01:08.141Z,95.17
2017-10-01T09:03:08.184Z,95.36
2017-10-01T09:04:08.206Z,95.75
2017-10-01T09:05:07.908Z,96.13
2017-10-01T09:06:08.258Z,95.94
2017-10-01T09:07:08.272Z,96.13
2017-10-01T09:08:08.293Z,96.51
2017-10-01T09:09:08.313Z,97.28
2017-10-01T09:10:08.336Z,97.37
2017-10-01T09:11:08.041Z,97.13
2017-10-01T09:12:08.383Z,96.7
2017-10-01T09:13:08.404Z,97.28
2017-10-01T09:14:23.017Z,97.61
2017-10-01T09:15:08.446Z,98.09
2017-10-01T09:16:08.468Z,98.09
2017-10-01T09:17:08.496Z,98.18
2017-10-01T09:18:08.195Z,97.9
2017-10-01T09:19:08.536Z,98.66
2017-10-01T09:20:08.557Z,99.19
2017-10-01T09:21:08.581Z,99.19
2017-10-01T09:22:08.626Z,99.85
2017-10-01T09:23:08.302Z,99.85
2017-10-01T09:24:08.329Z,99.99
2017-10-01T09:25:08.666Z,99.66
2017-10-01T09:26:08.688Z,99.99
2017-10-01T09:27:08.709Z,99.99
2017-10-01T09:28:08.741Z,99.99
2017-10-01T09:29:08.754Z,99.99
2017-10-01T09:30:23.366Z,99.99
2017-10-01T09:31:08.481Z,99.99
2017-10-01T09:32:08.819Z,99.99
2017-10-01T09:33:08.845Z,99.99
2017-10-01T09:35:08.568Z,99.99
2017-10-01T09:36:08.907Z,99.99
2017-10-01T09:37:08.932Z,99.99
2017-10-01T09:38:08.975Z,99.99
2017-10-01T09:39:08.974Z,99.99
2017-10-01T09:40:08.994Z,99.99
2017-10-01T09:41:09.017Z,99.99
2017-10-01T09:42:09.038Z,99.99
2017-10-01T09:43:09.068Z,99.99
2017-10-01T09:44:09.093Z,99.99
2017-10-01T09:45:09.114Z,99.99
2017-10-01T09:46:23.720Z,99.99
2017-10-01T09:47:09.150Z,99.99
2017-10-01T09:49:09.195Z,99.99
2017-10-01T09:50:09.215Z,99.99
2017-10-01T09:51:08.921Z,99.99
2017-10-01T09:52:09.310Z,99.99
2017-10-01T09:53:09.288Z,99.99
2017-10-01T09:55:09.326Z,99.99
2017-10-01T09:56:09.350Z,99.99
2017-10-01T09:57:09.052Z,99.99
2017-10-01T09:58:09.075Z,99.99
2017-10-01T09:59:09.097Z,99.99
2017-10-01T10:00:09.120Z,99.99
2017-10-01T10:01:24.051Z,99.99
2017-10-01T10:03:09.502Z,99.99
2017-10-01T10:04:09.524Z,99.99
2017-10-01T10:05:09.229Z,99.99
2017-10-01T10:06:09.253Z,99.99
2017-10-01T10:07:09.590Z,99.99
2017-10-01T10:08:09.296Z,99.99
2017-10-01T10:09:09.317Z,99.99
2017-10-01T10:10:09.658Z,99.99
2017-10-01T10:11:09.362Z,99.99
2017-10-01T10:13:09.737Z,99.99
2017-10-01T10:14:09.741Z,99.99
2017-10-01T10:15:09.768Z,99.99
2017-10-01T10:16:09.471Z,99.99
2017-10-01T10:17:09.813Z,99.99
2017-10-01T10:18:09.516Z,99.99
2017-10-01T10:19:09.854Z,99.99
2017-10-01T10:20:09.881Z,99.99
2017-10-01T10:21:09.582Z,99.99
2017-10-01T10:22:09.609Z,99.99
2017-10-01T10:23:09.944Z,99.99
2017-10-01T10:24:09.966Z,99.99
2017-10-01T10:25:09.989Z,99.99
2017-10-01T10:26:10.011Z,99.99
2017-10-01T10:27:10.039Z,99.99
2017-10-01T10:28:10.056Z,99.99
2017-10-01T10:29:10.082Z,99.99
2017-10-01T10:30:10.105Z,99.99
2017-10-01T10:31:10.124Z,99.99
2017-10-01T10:32:09.832Z,99.99
2017-10-01T10:33:24.759Z,99.99
2017-10-01T10:34:10.189Z,99.99
2017-10-01T10:36:10.235Z,99.99
2017-10-01T10:37:10.256Z,99.99
2017-10-01T10:38:10.293Z,99.99
2017-10-01T10:39:09.985Z,99.99
2017-10-01T10:40:10.007Z,99.99
2017-10-01T10:41:10.347Z,99.99
2017-10-01T10:42:10.369Z,99.99
2017-10-01T10:43:10.394Z,99.99
2017-10-01T10:44:10.415Z,99.99
2017-10-01T10:45:10.434Z,99.99
2017-10-01T10:46:10.459Z,99.99
2017-10-01T10:47:10.484Z,99.99
2017-10-01T10:48:10.509Z,99.99
2017-10-01T10:49:25.123Z,99.99
2017-10-01T10:50:10.553Z,99.99
2017-10-01T10:52:10.644Z,99.99
2017-10-01T10:53:10.619Z,99.99
2017-10-01T10:55:10.665Z,99.99
2017-10-01T10:56:10.367Z,99.99
2017-10-01T10:57:10.710Z,99.99
2017-10-01T10:58:10.731Z,99.99
2017-10-01T10:59:10.761Z,99.99
2017-10-01T11:00:10.779Z,99.99
2017-10-01T11:01:10.483Z,99.99
2017-10-01T11:02:10.825Z,99.99
2017-10-01T11:03:10.844Z,99.99
2017-10-01T11:04:10.867Z,99.99
2017-10-01T11:05:25.484Z,99.99
2017-10-01T11:06:10.910Z,99.99
2017-10-01T11:07:10.937Z,99.99
2017-10-01T11:08:10.961Z,99.99
2017-10-01T11:09:10.977Z,99.99
2017-10-01T11:10:11.004Z,99.99
2017-10-01T11:11:11.029Z,99.99
2017-10-01T11:12:11.052Z,99.99
2017-10-01T11:13:10.754Z,99.99
2017-10-01T11:14:11.094Z,99.99
2017-10-01T11:15:11.118Z,99.99
2017-10-01T11:16:11.142Z,99.99
2017-10-01T11:17:11.160Z,99.99
2017-10-01T11:18:11.183Z,99.99
2017-10-01T11:19:11.208Z,99.99
2017-10-01T11:20:11.231Z,99.99
2017-10-01T11:21:25.849Z,99.99
2017-10-01T11:22:11.276Z,99.99
2017-10-01T11:23:11.301Z,99.99
2017-10-01T11:24:11.321Z,99.99
2017-10-01T11:25:11.346Z,99.99
2017-10-01T11:26:11.369Z,99.99
2017-10-01T11:27:11.386Z,99.99
2017-10-01T11:28:11.413Z,99.99
2017-10-01T11:29:11.435Z,99.99
2017-10-01T11:30:11.458Z,99.99
2017-10-01T11:31:11.163Z,99.99
2017-10-01T11:32:11.187Z,99.99
2017-10-01T11:33:11.524Z,99.99
2017-10-01T11:34:11.558Z,99.99
2017-10-01T11:35:11.573Z,99.99
2017-10-01T11:36:26.189Z,99.99
2017-10-01T11:37:11.621Z,99.99
2017-10-01T11:38:11.644Z,99.99
2017-10-01T11:39:11.666Z,99.99
2017-10-01T11:40:11.371Z,99.99
2017-10-01T11:41:11.713Z,99.99
2017-10-01T11:42:11.735Z,99.63
2017-10-01T11:43:11.757Z,99.99
2017-10-01T11:44:11.779Z,99.99
2017-10-01T11:45:11.804Z,99.99
2017-10-01T11:46:11.827Z,99.99
2017-10-01T11:47:11.849Z,99.99
2017-10-01T11:48:11.874Z,99.99
2017-10-01T11:49:11.897Z,99.99
2017-10-01T11:50:11.920Z,99.99
2017-10-01T11:51:11.939Z,99.99
2017-10-01T11:52:11.965Z,99.99
2017-10-01T11:53:11.669Z,99.99
2017-10-01T11:54:12.022Z,99.99
2017-10-01T11:55:12.035Z,99.99
2017-10-01T11:56:12.053Z,99.99
2017-10-01T11:58:11.786Z,99.99
2017-10-01T11:59:12.130Z,99.99
2017-10-01T12:00:11.831Z,99.99
2017-10-01T12:01:12.172Z,99.99
2017-10-01T12:02:12.194Z,99.99
2017-10-01T12:03:12.216Z,99.99
2017-10-01T12:04:12.242Z,99.99
2017-10-01T12:05:11.947Z,99.99
2017-10-01T12:06:12.285Z,99.99
2017-10-01T12:07:11.991Z,99.99
2017-10-01T12:08:26.924Z,99.99
2017-10-01T12:09:12.355Z,99.99
2017-10-01T12:10:12.060Z,99.99
2017-10-01T12:11:12.399Z,99.99
2017-10-01T12:12:12.106Z,99.99
2017-10-01T12:13:12.456Z,99.99
2017-10-01T12:14:12.469Z,99.99
2017-10-01T12:15:12.499Z,99.99
2017-10-01T12:16:12.516Z,99.99
2017-10-01T12:17:12.538Z,99.99
2017-10-01T12:18:12.561Z,99.99
2017-10-01T12:19:12.266Z,99.99
2017-10-01T12:20:12.607Z,99.99
2017-10-01T12:21:12.633Z,99.99
2017-10-01T12:22:12.652Z,99.99
2017-10-01T12:23:12.675Z,99.99
2017-10-01T12:24:27.291Z,99.99
2017-10-01T12:25:12.723Z,99.99
2017-10-01T12:27:12.766Z,99.99
2017-10-01T12:28:12.794Z,99.99
2017-10-01T12:30:12.838Z,99.99
2017-10-01T12:31:12.859Z,99.99
2017-10-01T12:32:12.887Z,99.99
2017-10-01T12:33:12.903Z,99.99
2017-10-01T12:34:12.927Z,99.99
2017-10-01T12:35:12.633Z,99.99
2017-10-01T12:36:12.972Z,99.99
2017-10-01T12:37:13.042Z,99.99
2017-10-01T12:38:13.019Z,99.99
2017-10-01T12:39:12.726Z,99.99
2017-10-01T12:40:27.657Z,99.99
2017-10-01T12:41:12.769Z,99.99
2017-10-01T12:43:13.133Z,99.99
2017-10-01T12:44:13.162Z,99.99
2017-10-01T12:45:12.863Z,99.99
2017-10-01T12:46:12.883Z,99.99
2017-10-01T12:47:12.907Z,99.99
2017-10-01T12:48:13.257Z,99.99
2017-10-01T12:49:13.273Z,99.99
2017-10-01T12:50:13.292Z,99.99
2017-10-01T12:51:13.314Z,99.99
2017-10-01T12:52:13.337Z,99.99
2017-10-01T12:53:13.364Z,99.99
2017-10-01T12:54:13.381Z,99.99
2017-10-01T12:55:13.404Z,99.99
2017-10-01T12:56:28.021Z,99.99
2017-10-01T12:57:13.451Z,99.99
2017-10-01T12:58:13.477Z,99.99
2017-10-01T12:59:13.498Z,99.99
2017-10-01T13:01:13.544Z,99.99
2017-10-01T13:02:13.563Z,99.99
2017-10-01T13:03:13.610Z,99.99
2017-10-01T13:04:13.295Z,99.99
2017-10-01T13:05:13.634Z,99.99
2017-10-01T13:06:13.654Z,99.99
2017-10-01T13:07:13.678Z,99.99
2017-10-01T13:08:13.703Z,99.99
2017-10-01T13:09:13.726Z,99.99
2017-10-01T13:10:13.747Z,99.99
2017-10-01T13:11:28.362Z,99.99
2017-10-01T13:12:13.797Z,99.99
2017-10-01T13:13:13.499Z,99.99
2017-10-01T13:14:13.838Z,99.99
2017-10-01T13:16:13.886Z,99.99
2017-10-01T13:17:13.907Z,99.99
2017-10-01T13:18:13.929Z,99.99
2017-10-01T13:19:13.956Z,99.99
2017-10-01T13:20:13.975Z,99.99
2017-10-01T13:21:13.999Z,99.99
2017-10-01T13:22:14.021Z,99.99
2017-10-01T13:23:14.045Z,99.99
2017-10-01T13:24:14.063Z,99.99
2017-10-01T13:25:14.091Z,99.99
2017-10-01T13:26:13.796Z,99.99
2017-10-01T13:27:13.815Z,99.99
2017-10-01T13:28:14.155Z,99.99
2017-10-01T13:29:14.176Z,99.99
2017-10-01T13:31:14.227Z,99.99
2017-10-01T13:32:14.247Z,99.99
2017-10-01T13:33:14.266Z,99.99
2017-10-01T13:34:14.293Z,99.99
2017-10-01T13:35:14.321Z,99.99
2017-10-01T13:36:14.338Z,99.99
2017-10-01T13:37:14.044Z,99.99
2017-10-01T13:38:14.407Z,99.99
2017-10-01T13:39:14.408Z,99.99
2017-10-01T13:40:14.431Z,99.99
2017-10-01T13:41:14.454Z,99.99
2017-10-01T13:42:14.477Z,99.99